This is the latest recevied weather packets stored in our database for station/object KD0MAC. If no packets are shown the sender has not sent any weather packets the latest 10 day(s).
| Time | Temp. | Humidity | Pressure | Rain* | Wind** | Luminosity | Snow |
|---|---|---|---|---|---|---|---|
| 1777141941 | 22.78° C | 57% | 1007.8 hPa | 0 mm | - | 510 W/m² | - |
| 1777141640 | 22.78° C | 58% | 1007.8 hPa | 0 mm | - | 255 W/m² | - |
| 1777141340 | 21.67° C | 62% | 1008.1 hPa | 0 mm | - | 604 W/m² | - |
| 1777141040 | 21.11° C | 63% | 1008.1 hPa | 0 mm | - | 214 W/m² | - |
| 1777140740 | 21.67° C | 61% | 1008.1 hPa | 0 mm | - | 194 W/m² | - |
| 1777140440 | 21.67° C | 63% | 1008.1 hPa | 0 mm | - | 376 W/m² | - |
| 1777140141 | 20.56° C | 66% | 1008.5 hPa | 0 mm | - | 369 W/m² | - |
| 1777139841 | 19.44° C | 69% | 1008.5 hPa | 0 mm | - | 322 W/m² | - |
| 1777139541 | 19.44° C | 70% | 1008.5 hPa | 0 mm | - | 143 W/m² | - |
| 1777139240 | 19.44° C | 70% | 1008.5 hPa | 0 mm | - | 145 W/m² | - |
| 1777138940 | 19.44° C | 70% | 1008.5 hPa | 0 mm | - | 203 W/m² | - |
| 1777138640 | 19.44° C | 70% | 1008.5 hPa | 0 mm | - | 247 W/m² | - |
| 1777138340 | 19.44° C | 70% | 1008.5 hPa | 0 mm | - | 226 W/m² | - |
| 1777138041 | 20° C | 68% | 1008.5 hPa | 0 mm | - | 202 W/m² | - |
| 1777137741 | 19.44° C | 71% | 1008.8 hPa | 0 mm | - | 293 W/m² | - |
| 1777137440 | 18.33° C | 74% | 1008.8 hPa | 0 mm | - | 281 W/m² | - |
| 1777137140 | 17.78° C | 75% | 1008.8 hPa | 0 mm | - | 249 W/m² | - |
| 1777136842 | 17.22° C | 76% | 1008.8 hPa | 0 mm | - | 225 W/m² | - |
| 1777136540 | 17.22° C | 76% | 1008.8 hPa | 0 mm | - | 117 W/m² | - |
| 1777136241 | 17.22° C | 76% | 1008.8 hPa | 0 mm | - | 113 W/m² | - |
| 1777135940 | 17.22° C | 78% | 1008.5 hPa | 0 mm | - | 147 W/m² | - |
| 1777135642 | 16.67° C | 79% | 1008.5 hPa | 0 mm | - | 180 W/m² | - |
| 1777135341 | 16.11° C | 79% | 1008.5 hPa | 0 mm | - | 183 W/m² | - |
| 1777135040 | 16.11° C | 79% | 1008.5 hPa | 0 mm | - | 109 W/m² | - |
| 1777134740 | 16.11° C | 79% | 1008.5 hPa | 0 mm | - | 92 W/m² | - |
* Rain latest hour (hover to see other rain measurements)
** Current wind speed in m/s (hover to see current wind gust speed)